sensor_id;sensor_type;location;lat;lon;timestamp;temperature;humidity
31677;DHT22;18385;51.572;6.578;2023-05-02T00:01:39;14.10;59.90
31677;DHT22;18385;51.572;6.578;2023-05-02T00:04:06;14.10;59.90
31677;DHT22;18385;51.572;6.578;2023-05-02T00:06:31;14.20;59.90
31677;DHT22;18385;51.572;6.578;2023-05-02T00:08:57;14.30;60.00
31677;DHT22;18385;51.572;6.578;2023-05-02T00:11:23;14.30;59.90
31677;DHT22;18385;51.572;6.578;2023-05-02T00:13:49;14.20;59.90
31677;DHT22;18385;51.572;6.578;2023-05-02T00:16:15;14.10;59.80
31677;DHT22;18385;51.572;6.578;2023-05-02T00:18:40;14.00;60.00
31677;DHT22;18385;51.572;6.578;2023-05-02T00:21:06;13.80;60.20
31677;DHT22;18385;51.572;6.578;2023-05-02T00:23:33;13.70;60.40
31677;DHT22;18385;51.572;6.578;2023-05-02T00:25:58;13.60;60.50
31677;DHT22;18385;51.572;6.578;2023-05-02T00:28:24;13.60;60.90
31677;DHT22;18385;51.572;6.578;2023-05-02T00:30:51;13.60;60.90
31677;DHT22;18385;51.572;6.578;2023-05-02T00:33:17;13.60;61.10
31677;DHT22;18385;51.572;6.578;2023-05-02T00:35:43;13.70;61.10
31677;DHT22;18385;51.572;6.578;2023-05-02T00:38:08;13.70;61.10
31677;DHT22;18385;51.572;6.578;2023-05-02T00:40:45;13.70;61.20
31677;DHT22;18385;51.572;6.578;2023-05-02T00:43:12;13.80;61.30
31677;DHT22;18385;51.572;6.578;2023-05-02T00:45:38;13.70;61.20
31677;DHT22;18385;51.572;6.578;2023-05-02T00:48:08;13.80;61.30
31677;DHT22;18385;51.572;6.578;2023-05-02T00:50:41;13.80;61.40
31677;DHT22;18385;51.572;6.578;2023-05-02T00:53:08;13.90;61.60
31677;DHT22;18385;51.572;6.578;2023-05-02T00:55:35;14.00;61.50
31677;DHT22;18385;51.572;6.578;2023-05-02T00:58:04;14.10;61.50
31677;DHT22;18385;51.572;6.578;2023-05-02T01:06:27;14.10;61.70
31677;DHT22;18385;51.572;6.578;2023-05-02T01:11:44;14.10;61.70
31677;DHT22;18385;51.572;6.578;2023-05-02T01:14:13;14.10;61.60
31677;DHT22;18385;51.572;6.578;2023-05-02T01:16:40;14.10;61.60
31677;DHT22;18385;51.572;6.578;2023-05-02T01:19:13;14.20;61.80
31677;DHT22;18385;51.572;6.578;2023-05-02T01:21:44;14.20;61.90
31677;DHT22;18385;51.572;6.578;2023-05-02T01:24:21;14.20;62.00
31677;DHT22;18385;51.572;6.578;2023-05-02T01:26:58;14.20;62.10
31677;DHT22;18385;51.572;6.578;2023-05-02T01:29:27;14.30;62.20
31677;DHT22;18385;51.572;6.578;2023-05-02T01:31:55;14.20;62.00
31677;DHT22;18385;51.572;6.578;2023-05-02T01:34:23;14.30;62.20
31677;DHT22;18385;51.572;6.578;2023-05-02T01:36:50;14.30;62.20
31677;DHT22;18385;51.572;6.578;2023-05-02T01:39:20;14.30;62.20
31677;DHT22;18385;51.572;6.578;2023-05-02T01:41:52;14.30;62.30
31677;DHT22;18385;51.572;6.578;2023-05-02T01:44:21;14.30;62.30
31677;DHT22;18385;51.572;6.578;2023-05-02T01:46:48;14.30;62.30
31677;DHT22;18385;51.572;6.578;2023-05-02T01:49:17;14.30;62.30
31677;DHT22;18385;51.572;6.578;2023-05-02T01:51:47;14.30;62.40
31677;DHT22;18385;51.572;6.578;2023-05-02T01:54:15;14.40;62.50
31677;DHT22;18385;51.572;6.578;2023-05-02T01:56:42;14.30;62.40
31677;DHT22;18385;51.572;6.578;2023-05-02T01:59:11;14.40;62.40
31677;DHT22;18385;51.572;6.578;2023-05-02T02:01:39;14.40;62.60
31677;DHT22;18385;51.572;6.578;2023-05-02T02:04:07;14.40;62.50
31677;DHT22;18385;51.572;6.578;2023-05-02T02:06:33;14.40;62.50
31677;DHT22;18385;51.572;6.578;2023-05-02T02:08:59;14.50;62.50
31677;DHT22;18385;51.572;6.578;2023-05-02T02:11:36;14.50;62.50
31677;DHT22;18385;51.572;6.578;2023-05-02T02:14:06;14.50;62.50
31677;DHT22;18385;51.572;6.578;2023-05-02T02:16:34;14.50;62.40
31677;DHT22;18385;51.572;6.578;2023-05-02T02:19:03;14.40;62.50
31677;DHT22;18385;51.572;6.578;2023-05-02T02:21:31;14.50;62.30
31677;DHT22;18385;51.572;6.578;2023-05-02T02:23:59;14.40;62.40
31677;DHT22;18385;51.572;6.578;2023-05-02T02:26:26;14.40;62.50
31677;DHT22;18385;51.572;6.578;2023-05-02T02:28:51;14.40;62.50
31677;DHT22;18385;51.572;6.578;2023-05-02T02:31:19;14.40;62.60
31677;DHT22;18385;51.572;6.578;2023-05-02T02:33:45;14.50;62.60
31677;DHT22;18385;51.572;6.578;2023-05-02T02:36:15;14.50;62.50
31677;DHT22;18385;51.572;6.578;2023-05-02T02:38:50;14.50;62.50
31677;DHT22;18385;51.572;6.578;2023-05-02T02:41:30;14.50;62.60
31677;DHT22;18385;51.572;6.578;2023-05-02T02:44:05;14.50;62.80
31677;DHT22;18385;51.572;6.578;2023-05-02T02:51:44;14.40;63.00
31677;DHT22;18385;51.572;6.578;2023-05-02T02:54:23;14.40;63.10
31677;DHT22;18385;51.572;6.578;2023-05-02T02:59:48;14.40;63.10
31677;DHT22;18385;51.572;6.578;2023-05-02T03:02:17;14.40;63.10
31677;DHT22;18385;51.572;6.578;2023-05-02T03:04:45;14.40;63.10
31677;DHT22;18385;51.572;6.578;2023-05-02T03:07:11;14.40;63.10
31677;DHT22;18385;51.572;6.578;2023-05-02T03:09:45;14.40;63.10
31677;DHT22;18385;51.572;6.578;2023-05-02T03:12:16;14.50;63.30
31677;DHT22;18385;51.572;6.578;2023-05-02T03:14:43;14.40;63.20
31677;DHT22;18385;51.572;6.578;2023-05-02T03:17:09;14.40;63.20
31677;DHT22;18385;51.572;6.578;2023-05-02T03:19:36;14.40;63.20
31677;DHT22;18385;51.572;6.578;2023-05-02T03:22:03;14.40;63.20
31677;DHT22;18385;51.572;6.578;2023-05-02T03:24:29;14.50;63.40
31677;DHT22;18385;51.572;6.578;2023-05-02T03:26:57;14.50;63.30
31677;DHT22;18385;51.572;6.578;2023-05-02T03:29:28;14.50;63.30
31677;DHT22;18385;51.572;6.578;2023-05-02T03:31:54;14.40;63.30
31677;DHT22;18385;51.572;6.578;2023-05-02T03:34:21;14.40;63.40
31677;DHT22;18385;51.572;6.578;2023-05-02T03:36:48;14.40;63.50
31677;DHT22;18385;51.572;6.578;2023-05-02T03:39:14;14.40;63.50
31677;DHT22;18385;51.572;6.578;2023-05-02T03:41:40;14.50;63.60
31677;DHT22;18385;51.572;6.578;2023-05-02T03:44:10;14.40;63.60
31677;DHT22;18385;51.572;6.578;2023-05-02T03:46:36;14.40;63.60
31677;DHT22;18385;51.572;6.578;2023-05-02T03:49:05;14.40;63.60
31677;DHT22;18385;51.572;6.578;2023-05-02T03:51:31;14.50;63.50
31677;DHT22;18385;51.572;6.578;2023-05-02T03:53:59;14.40;63.60
31677;DHT22;18385;51.572;6.578;2023-05-02T03:56:26;14.40;63.60
31677;DHT22;18385;51.572;6.578;2023-05-02T03:59:06;14.40;63.70
31677;DHT22;18385;51.572;6.578;2023-05-02T04:01:32;14.40;63.50
31677;DHT22;18385;51.572;6.578;2023-05-02T04:03:59;14.40;63.50
31677;DHT22;18385;51.572;6.578;2023-05-02T04:06:28;14.40;63.70
31677;DHT22;18385;51.572;6.578;2023-05-02T04:09:01;14.30;63.80
31677;DHT22;18385;51.572;6.578;2023-05-02T04:11:34;14.30;63.90
31677;DHT22;18385;51.572;6.578;2023-05-02T04:14:01;14.30;63.90
31677;DHT22;18385;51.572;6.578;2023-05-02T04:16:27;14.10;63.90
31677;DHT22;18385;51.572;6.578;2023-05-02T04:18:53;14.10;64.30
31677;DHT22;18385;51.572;6.578;2023-05-02T04:21:19;14.00;64.40
31677;DHT22;18385;51.572;6.578;2023-05-02T04:23:46;14.00;64.50
31677;DHT22;18385;51.572;6.578;2023-05-02T04:26:13;13.90;64.60
31677;DHT22;18385;51.572;6.578;2023-05-02T04:28:46;13.70;65.10
31677;DHT22;18385;51.572;6.578;2023-05-02T04:31:14;13.60;65.40
31677;DHT22;18385;51.572;6.578;2023-05-02T04:33:40;13.50;65.50
31677;DHT22;18385;51.572;6.578;2023-05-02T04:36:08;13.50;65.70
31677;DHT22;18385;51.572;6.578;2023-05-02T04:38:34;13.50;65.80
31677;DHT22;18385;51.572;6.578;2023-05-02T04:41:00;13.60;65.80
31677;DHT22;18385;51.572;6.578;2023-05-02T04:43:36;13.50;66.60
31677;DHT22;18385;51.572;6.578;2023-05-02T04:46:03;13.50;65.90
31677;DHT22;18385;51.572;6.578;2023-05-02T04:48:35;13.50;65.90
31677;DHT22;18385;51.572;6.578;2023-05-02T04:51:01;13.50;65.80
31677;DHT22;18385;51.572;6.578;2023-05-02T04:53:28;13.50;65.90
31677;DHT22;18385;51.572;6.578;2023-05-02T04:55:54;13.50;66.10
31677;DHT22;18385;51.572;6.578;2023-05-02T04:58:20;13.60;66.00
31677;DHT22;18385;51.572;6.578;2023-05-02T05:00:50;13.60;66.20
31677;DHT22;18385;51.572;6.578;2023-05-02T05:03:16;13.70;66.20
31677;DHT22;18385;51.572;6.578;2023-05-02T05:05:41;13.70;66.10
31677;DHT22;18385;51.572;6.578;2023-05-02T05:08:12;13.70;66.10
31677;DHT22;18385;51.572;6.578;2023-05-02T05:10:38;13.70;66.00
31677;DHT22;18385;51.572;6.578;2023-05-02T05:13:05;13.80;66.00
31677;DHT22;18385;51.572;6.578;2023-05-02T05:15:32;13.70;65.90
31677;DHT22;18385;51.572;6.578;2023-05-02T05:18:00;13.80;66.00
31677;DHT22;18385;51.572;6.578;2023-05-02T05:20:26;13.80;65.90
31677;DHT22;18385;51.572;6.578;2023-05-02T05:22:55;13.80;66.00
31677;DHT22;18385;51.572;6.578;2023-05-02T05:25:25;13.80;66.00
31677;DHT22;18385;51.572;6.578;2023-05-02T05:27:52;13.80;66.10
31677;DHT22;18385;51.572;6.578;2023-05-02T05:30:19;13.80;66.10
31677;DHT22;18385;51.572;6.578;2023-05-02T05:32:45;13.80;66.10
31677;DHT22;18385;51.572;6.578;2023-05-02T05:35:10;13.80;66.10
31677;DHT22;18385;51.572;6.578;2023-05-02T05:37:37;13.90;66.10
31677;DHT22;18385;51.572;6.578;2023-05-02T05:40:07;13.90;66.00
31677;DHT22;18385;51.572;6.578;2023-05-02T05:42:33;13.90;65.90
31677;DHT22;18385;51.572;6.578;2023-05-02T05:45:03;14.00;65.90
31677;DHT22;18385;51.572;6.578;2023-05-02T05:47:29;14.00;65.90
31677;DHT22;18385;51.572;6.578;2023-05-02T05:49:55;14.00;65.80
31677;DHT22;18385;51.572;6.578;2023-05-02T05:52:23;14.00;65.80
31677;DHT22;18385;51.572;6.578;2023-05-02T05:54:55;14.10;65.80
31677;DHT22;18385;51.572;6.578;2023-05-02T05:57:26;14.20;65.80
31677;DHT22;18385;51.572;6.578;2023-05-02T05:59:53;14.20;65.80
31677;DHT22;18385;51.572;6.578;2023-05-02T06:02:19;14.30;65.70
31677;DHT22;18385;51.572;6.578;2023-05-02T06:04:45;14.30;65.50
31677;DHT22;18385;51.572;6.578;2023-05-02T06:07:12;14.40;65.40
31677;DHT22;18385;51.572;6.578;2023-05-02T06:09:38;14.40;65.20
31677;DHT22;18385;51.572;6.578;2023-05-02T06:12:03;14.40;65.10
31677;DHT22;18385;51.572;6.578;2023-05-02T06:14:31;14.30;65.00
31677;DHT22;18385;51.572;6.578;2023-05-02T06:17:00;14.20;65.00
31677;DHT22;18385;51.572;6.578;2023-05-02T06:19:26;14.00;65.10
31677;DHT22;18385;51.572;6.578;2023-05-02T06:21:52;13.90;65.20
31677;DHT22;18385;51.572;6.578;2023-05-02T06:24:18;13.80;65.40
31677;DHT22;18385;51.572;6.578;2023-05-02T06:26:44;13.70;65.30
31677;DHT22;18385;51.572;6.578;2023-05-02T06:29:10;13.80;66.20
31677;DHT22;18385;51.572;6.578;2023-05-02T06:31:36;13.80;65.40
31677;DHT22;18385;51.572;6.578;2023-05-02T06:34:01;13.80;65.10
31677;DHT22;18385;51.572;6.578;2023-05-02T06:36:27;13.80;65.10
31677;DHT22;18385;51.572;6.578;2023-05-02T06:38:52;13.80;65.00
31677;DHT22;18385;51.572;6.578;2023-05-02T06:41:18;13.80;64.90
31677;DHT22;18385;51.572;6.578;2023-05-02T06:43:45;13.90;65.00
31677;DHT22;18385;51.572;6.578;2023-05-02T06:46:10;13.90;64.70
31677;DHT22;18385;51.572;6.578;2023-05-02T06:48:36;14.00;64.70
31677;DHT22;18385;51.572;6.578;2023-05-02T06:51:02;14.10;64.70
31677;DHT22;18385;51.572;6.578;2023-05-02T06:53:29;14.20;64.50
31677;DHT22;18385;51.572;6.578;2023-05-02T06:55:55;14.20;64.40
31677;DHT22;18385;51.572;6.578;2023-05-02T06:58:21;14.30;64.10
31677;DHT22;18385;51.572;6.578;2023-05-02T07:00:46;14.20;64.00
31677;DHT22;18385;51.572;6.578;2023-05-02T07:03:13;14.10;64.10
31677;DHT22;18385;51.572;6.578;2023-05-02T07:05:38;14.20;64.30
31677;DHT22;18385;51.572;6.578;2023-05-02T07:08:04;14.20;64.30
31677;DHT22;18385;51.572;6.578;2023-05-02T07:10:30;14.20;64.00
31677;DHT22;18385;51.572;6.578;2023-05-02T07:12:56;14.20;63.90
31677;DHT22;18385;51.572;6.578;2023-05-02T07:15:22;14.20;64.60
31677;DHT22;18385;51.572;6.578;2023-05-02T07:17:47;14.20;63.80
31677;DHT22;18385;51.572;6.578;2023-05-02T07:20:14;14.20;63.80
31677;DHT22;18385;51.572;6.578;2023-05-02T07:22:41;14.20;63.60
31677;DHT22;18385;51.572;6.578;2023-05-02T07:25:07;14.20;63.50
31677;DHT22;18385;51.572;6.578;2023-05-02T07:27:33;14.20;63.60
31677;DHT22;18385;51.572;6.578;2023-05-02T07:29:59;14.20;63.70
31677;DHT22;18385;51.572;6.578;2023-05-02T07:32:25;14.30;63.50
31677;DHT22;18385;51.572;6.578;2023-05-02T07:34:51;14.30;63.30
31677;DHT22;18385;51.572;6.578;2023-05-02T07:37:21;14.30;63.40
31677;DHT22;18385;51.572;6.578;2023-05-02T07:39:47;14.40;63.40
31677;DHT22;18385;51.572;6.578;2023-05-02T07:42:13;14.50;63.10
31677;DHT22;18385;51.572;6.578;2023-05-02T07:44:38;14.50;62.80
31677;DHT22;18385;51.572;6.578;2023-05-02T07:47:04;14.60;62.80
31677;DHT22;18385;51.572;6.578;2023-05-02T07:49:30;14.60;62.70
31677;DHT22;18385;51.572;6.578;2023-05-02T07:51:56;14.70;62.60
31677;DHT22;18385;51.572;6.578;2023-05-02T07:54:22;14.90;62.30
31677;DHT22;18385;51.572;6.578;2023-05-02T07:56:50;14.90;62.00
31677;DHT22;18385;51.572;6.578;2023-05-02T07:59:16;15.00;62.10
31677;DHT22;18385;51.572;6.578;2023-05-02T08:01:41;15.10;61.90
31677;DHT22;18385;51.572;6.578;2023-05-02T08:04:07;15.00;61.40
31677;DHT22;18385;51.572;6.578;2023-05-02T08:06:36;14.90;61.60
31677;DHT22;18385;51.572;6.578;2023-05-02T08:09:02;14.90;61.70
31677;DHT22;18385;51.572;6.578;2023-05-02T08:11:28;14.90;61.70
31677;DHT22;18385;51.572;6.578;2023-05-02T08:13:54;14.80;61.40
31677;DHT22;18385;51.572;6.578;2023-05-02T08:16:20;14.80;61.40
31677;DHT22;18385;51.572;6.578;2023-05-02T08:18:46;14.80;61.40
31677;DHT22;18385;51.572;6.578;2023-05-02T08:21:12;14.80;60.90
31677;DHT22;18385;51.572;6.578;2023-05-02T08:23:40;14.80;60.70
31677;DHT22;18385;51.572;6.578;2023-05-02T08:26:06;14.80;60.80
31677;DHT22;18385;51.572;6.578;2023-05-02T08:28:34;15.00;60.90
31677;DHT22;18385;51.572;6.578;2023-05-02T08:31:00;15.20;60.80
31677;DHT22;18385;51.572;6.578;2023-05-02T08:33:26;15.30;60.60
31677;DHT22;18385;51.572;6.578;2023-05-02T08:35:51;15.60;60.50
31677;DHT22;18385;51.572;6.578;2023-05-02T08:38:17;15.70;59.90
31677;DHT22;18385;51.572;6.578;2023-05-02T08:40:43;15.70;59.60
31677;DHT22;18385;51.572;6.578;2023-05-02T08:43:10;15.80;59.20
31677;DHT22;18385;51.572;6.578;2023-05-02T08:45:40;15.80;59.30
31677;DHT22;18385;51.572;6.578;2023-05-02T08:48:11;15.90;59.10
31677;DHT22;18385;51.572;6.578;2023-05-02T08:50:38;16.00;59.00
31677;DHT22;18385;51.572;6.578;2023-05-02T08:53:08;16.10;59.10
31677;DHT22;18385;51.572;6.578;2023-05-02T08:55:35;16.20;58.70
31677;DHT22;18385;51.572;6.578;2023-05-02T08:58:04;16.40;58.60
31677;DHT22;18385;51.572;6.578;2023-05-02T09:00:31;16.50;58.40
31677;DHT22;18385;51.572;6.578;2023-05-02T09:05:46;16.30;57.20
31677;DHT22;18385;51.572;6.578;2023-05-02T09:08:21;16.10;57.50
31677;DHT22;18385;51.572;6.578;2023-05-02T09:10:48;15.90;58.00
31677;DHT22;18385;51.572;6.578;2023-05-02T09:16:07;15.70;58.10
31677;DHT22;18385;51.572;6.578;2023-05-02T09:18:41;15.70;58.20
31677;DHT22;18385;51.572;6.578;2023-05-02T09:21:11;15.80;58.20
31677;DHT22;18385;51.572;6.578;2023-05-02T09:26:19;16.10;57.80
31677;DHT22;18385;51.572;6.578;2023-05-02T09:28:52;16.20;57.60
31677;DHT22;18385;51.572;6.578;2023-05-02T09:31:23;16.30;57.30
31677;DHT22;18385;51.572;6.578;2023-05-02T09:33:55;16.40;57.30
31677;DHT22;18385;51.572;6.578;2023-05-02T09:36:21;16.30;56.70
31677;DHT22;18385;51.572;6.578;2023-05-02T09:38:48;16.30;56.90
31677;DHT22;18385;51.572;6.578;2023-05-02T09:41:15;16.30;56.80
31677;DHT22;18385;51.572;6.578;2023-05-02T09:43:42;16.30;56.80
31677;DHT22;18385;51.572;6.578;2023-05-02T09:46:11;16.30;56.80
31677;DHT22;18385;51.572;6.578;2023-05-02T09:48:54;16.40;56.50
31677;DHT22;18385;51.572;6.578;2023-05-02T09:51:26;16.40;56.30
31677;DHT22;18385;51.572;6.578;2023-05-02T09:53:51;16.30;56.00
31677;DHT22;18385;51.572;6.578;2023-05-02T09:56:18;16.20;56.30
31677;DHT22;18385;51.572;6.578;2023-05-02T09:58:43;16.20;56.20
31677;DHT22;18385;51.572;6.578;2023-05-02T10:01:17;16.20;56.20
31677;DHT22;18385;51.572;6.578;2023-05-02T10:03:46;16.20;55.90
31677;DHT22;18385;51.572;6.578;2023-05-02T10:06:12;16.30;55.90
31677;DHT22;18385;51.572;6.578;2023-05-02T10:08:41;16.40;55.90
31677;DHT22;18385;51.572;6.578;2023-05-02T10:11:08;16.50;55.70
31677;DHT22;18385;51.572;6.578;2023-05-02T10:13:37;16.70;55.20
31677;DHT22;18385;51.572;6.578;2023-05-02T10:16:05;16.70;54.80
31677;DHT22;18385;51.572;6.578;2023-05-02T10:18:51;16.80;54.50
31677;DHT22;18385;51.572;6.578;2023-05-02T10:21:24;16.70;54.30
31677;DHT22;18385;51.572;6.578;2023-05-02T10:23:52;16.80;54.50
31677;DHT22;18385;51.572;6.578;2023-05-02T10:26:18;16.80;54.20
31677;DHT22;18385;51.572;6.578;2023-05-02T10:28:46;16.70;54.40
31677;DHT22;18385;51.572;6.578;2023-05-02T10:31:13;16.70;54.00
31677;DHT22;18385;51.572;6.578;2023-05-02T10:33:40;16.60;53.50
31677;DHT22;18385;51.572;6.578;2023-05-02T10:36:08;16.50;53.60
31677;DHT22;18385;51.572;6.578;2023-05-02T10:38:35;16.40;53.50
31677;DHT22;18385;51.572;6.578;2023-05-02T10:41:09;16.50;53.90
31677;DHT22;18385;51.572;6.578;2023-05-02T10:43:37;16.80;53.60
31677;DHT22;18385;51.572;6.578;2023-05-02T10:49:11;17.00;52.70
31677;DHT22;18385;51.572;6.578;2023-05-02T10:51:42;17.00;52.40
31677;DHT22;18385;51.572;6.578;2023-05-02T10:57:00;17.30;52.20
31677;DHT22;18385;51.572;6.578;2023-05-02T11:01:53;17.50;51.60
31677;DHT22;18385;51.572;6.578;2023-05-02T11:04:19;17.60;51.30
31677;DHT22;18385;51.572;6.578;2023-05-02T11:11:54;17.40;50.40
31677;DHT22;18385;51.572;6.578;2023-05-02T11:22:32;18.30;49.90
31677;DHT22;18385;51.572;6.578;2023-05-02T11:24:57;18.40;49.70
31677;DHT22;18385;51.572;6.578;2023-05-02T11:29:59;18.60;49.00
31677;DHT22;18385;51.572;6.578;2023-05-02T11:35:18;18.70;48.50
31677;DHT22;18385;51.572;6.578;2023-05-02T11:38:05;18.70;48.40
31677;DHT22;18385;51.572;6.578;2023-05-02T11:40:31;18.60;48.30
31677;DHT22;18385;51.572;6.578;2023-05-02T11:42:58;18.40;48.10
31677;DHT22;18385;51.572;6.578;2023-05-02T11:45:37;18.10;47.80
31677;DHT22;18385;51.572;6.578;2023-05-02T11:48:07;17.70;47.60
31677;DHT22;18385;51.572;6.578;2023-05-02T11:50:44;17.50;48.50
31677;DHT22;18385;51.572;6.578;2023-05-02T11:53:14;17.50;48.50
31677;DHT22;18385;51.572;6.578;2023-05-02T11:55:57;17.50;48.60
31677;DHT22;18385;51.572;6.578;2023-05-02T11:58:25;17.40;47.80
31677;DHT22;18385;51.572;6.578;2023-05-02T12:00:54;17.00;47.70
31677;DHT22;18385;51.572;6.578;2023-05-02T12:03:27;16.90;48.30
31677;DHT22;18385;51.572;6.578;2023-05-02T12:05:54;17.00;48.50
31677;DHT22;18385;51.572;6.578;2023-05-02T12:08:25;17.20;48.30
31677;DHT22;18385;51.572;6.578;2023-05-02T12:10:52;17.30;47.60
31677;DHT22;18385;51.572;6.578;2023-05-02T12:13:19;17.40;47.70
31677;DHT22;18385;51.572;6.578;2023-05-02T12:15:45;17.50;47.50
31677;DHT22;18385;51.572;6.578;2023-05-02T12:18:12;17.40;47.00
31677;DHT22;18385;51.572;6.578;2023-05-02T12:20:38;17.20;47.10
31677;DHT22;18385;51.572;6.578;2023-05-02T12:23:05;17.20;47.00
31677;DHT22;18385;51.572;6.578;2023-05-02T12:25:39;17.20;47.10
31677;DHT22;18385;51.572;6.578;2023-05-02T12:28:05;17.40;46.70
31677;DHT22;18385;51.572;6.578;2023-05-02T12:30:31;17.30;46.60
31677;DHT22;18385;51.572;6.578;2023-05-02T12:32:59;17.40;47.00
31677;DHT22;18385;51.572;6.578;2023-05-02T12:35:29;17.70;47.00
31677;DHT22;18385;51.572;6.578;2023-05-02T12:38:10;18.20;46.70
31677;DHT22;18385;51.572;6.578;2023-05-02T12:40:36;18.50;46.40
31677;DHT22;18385;51.572;6.578;2023-05-02T12:43:03;18.70;45.70
31677;DHT22;18385;51.572;6.578;2023-05-02T12:45:31;18.50;45.00
31677;DHT22;18385;51.572;6.578;2023-05-02T12:48:01;18.20;45.10
31677;DHT22;18385;51.572;6.578;2023-05-02T12:50:39;18.20;45.40
31677;DHT22;18385;51.572;6.578;2023-05-02T12:53:05;18.40;45.50
31677;DHT22;18385;51.572;6.578;2023-05-02T12:55:32;18.50;45.30
31677;DHT22;18385;51.572;6.578;2023-05-02T13:00:27;18.60;44.50
31677;DHT22;18385;51.572;6.578;2023-05-02T13:02:53;18.50;44.80
31677;DHT22;18385;51.572;6.578;2023-05-02T13:05:19;18.70;45.00
31677;DHT22;18385;51.572;6.578;2023-05-02T13:07:45;19.10;45.70
31677;DHT22;18385;51.572;6.578;2023-05-02T13:10:11;19.90;46.20
31677;DHT22;18385;51.572;6.578;2023-05-02T13:12:38;20.80;46.40
31677;DHT22;18385;51.572;6.578;2023-05-02T13:15:06;21.40;44.50
31677;DHT22;18385;51.572;6.578;2023-05-02T13:17:33;21.50;44.10
31677;DHT22;18385;51.572;6.578;2023-05-02T13:19:59;21.60;43.20
31677;DHT22;18385;51.572;6.578;2023-05-02T13:22:25;21.80;43.30
31677;DHT22;18385;51.572;6.578;2023-05-02T13:24:51;22.30;43.20
31677;DHT22;18385;51.572;6.578;2023-05-02T13:27:17;22.40;41.80
31677;DHT22;18385;51.572;6.578;2023-05-02T13:29:48;22.30;41.40
31677;DHT22;18385;51.572;6.578;2023-05-02T13:32:13;22.10;40.80
31677;DHT22;18385;51.572;6.578;2023-05-02T13:34:39;22.20;41.90
31677;DHT22;18385;51.572;6.578;2023-05-02T13:37:05;22.60;41.50
31677;DHT22;18385;51.572;6.578;2023-05-02T13:39:30;22.60;40.50
31677;DHT22;18385;51.572;6.578;2023-05-02T13:41:56;22.60;41.00
31677;DHT22;18385;51.572;6.578;2023-05-02T13:44:21;23.00;40.60
31677;DHT22;18385;51.572;6.578;2023-05-02T13:46:47;23.40;39.70
31677;DHT22;18385;51.572;6.578;2023-05-02T13:49:13;23.40;39.20
31677;DHT22;18385;51.572;6.578;2023-05-02T13:51:39;23.50;38.60
31677;DHT22;18385;51.572;6.578;2023-05-02T13:54:04;23.80;38.90
31677;DHT22;18385;51.572;6.578;2023-05-02T13:56:30;24.00;38.30
31677;DHT22;18385;51.572;6.578;2023-05-02T13:58:56;24.20;37.50
31677;DHT22;18385;51.572;6.578;2023-05-02T14:01:22;24.20;36.70
31677;DHT22;18385;51.572;6.578;2023-05-02T14:03:51;24.20;36.90
31677;DHT22;18385;51.572;6.578;2023-05-02T14:06:16;24.30;36.70
31677;DHT22;18385;51.572;6.578;2023-05-02T14:08:42;24.40;36.00
31677;DHT22;18385;51.572;6.578;2023-05-02T14:11:09;24.50;35.70
31677;DHT22;18385;51.572;6.578;2023-05-02T14:13:36;24.70;36.20
31677;DHT22;18385;51.572;6.578;2023-05-02T14:16:02;24.80;34.60
31677;DHT22;18385;51.572;6.578;2023-05-02T14:18:27;24.60;34.50
31677;DHT22;18385;51.572;6.578;2023-05-02T14:20:53;24.90;34.50
31677;DHT22;18385;51.572;6.578;2023-05-02T14:23:22;24.10;33.30
31677;DHT22;18385;51.572;6.578;2023-05-02T14:25:47;24.10;34.70
31677;DHT22;18385;51.572;6.578;2023-05-02T14:28:13;24.70;34.70
31677;DHT22;18385;51.572;6.578;2023-05-02T14:30:39;25.60;34.20
31677;DHT22;18385;51.572;6.578;2023-05-02T14:33:05;25.90;32.30
31677;DHT22;18385;51.572;6.578;2023-05-02T14:35:30;25.70;31.40
31677;DHT22;18385;51.572;6.578;2023-05-02T14:37:56;25.80;31.90
31677;DHT22;18385;51.572;6.578;2023-05-02T14:40:21;26.20;31.70
31677;DHT22;18385;51.572;6.578;2023-05-02T14:42:47;26.60;31.60
31677;DHT22;18385;51.572;6.578;2023-05-02T14:45:13;26.80;30.50
31677;DHT22;18385;51.572;6.578;2023-05-02T14:47:38;26.80;30.20
31677;DHT22;18385;51.572;6.578;2023-05-02T14:50:04;26.60;30.00
31677;DHT22;18385;51.572;6.578;2023-05-02T14:52:30;26.90;29.90
31677;DHT22;18385;51.572;6.578;2023-05-02T14:55:00;27.10;29.90
31677;DHT22;18385;51.572;6.578;2023-05-02T14:57:26;27.40;29.80
31677;DHT22;18385;51.572;6.578;2023-05-02T14:59:52;27.80;29.70
31677;DHT22;18385;51.572;6.578;2023-05-02T15:02:18;28.10;29.50
31677;DHT22;18385;51.572;6.578;2023-05-02T15:04:44;28.50;28.90
31677;DHT22;18385;51.572;6.578;2023-05-02T15:07:09;28.40;28.50
31677;DHT22;18385;51.572;6.578;2023-05-02T15:09:35;28.20;27.90
31677;DHT22;18385;51.572;6.578;2023-05-02T15:12:01;28.30;28.30
31677;DHT22;18385;51.572;6.578;2023-05-02T15:14:27;28.30;27.50
31677;DHT22;18385;51.572;6.578;2023-05-02T15:16:53;28.40;27.60
31677;DHT22;18385;51.572;6.578;2023-05-02T15:19:19;28.40;27.00
31677;DHT22;18385;51.572;6.578;2023-05-02T15:21:47;28.20;27.00
31677;DHT22;18385;51.572;6.578;2023-05-02T15:24:14;27.80;26.40
31677;DHT22;18385;51.572;6.578;2023-05-02T15:26:40;27.30;26.70
31677;DHT22;18385;51.572;6.578;2023-05-02T15:29:06;27.40;27.20
31677;DHT22;18385;51.572;6.578;2023-05-02T15:31:32;27.30;26.80
31677;DHT22;18385;51.572;6.578;2023-05-02T15:33:58;27.50;26.90
31677;DHT22;18385;51.572;6.578;2023-05-02T15:36:28;27.90;27.00
31677;DHT22;18385;51.572;6.578;2023-05-02T15:38:55;28.40;26.30
31677;DHT22;18385;51.572;6.578;2023-05-02T15:41:20;28.70;26.00
31677;DHT22;18385;51.572;6.578;2023-05-02T15:43:46;28.30;25.60
31677;DHT22;18385;51.572;6.578;2023-05-02T15:46:12;27.70;25.90
31677;DHT22;18385;51.572;6.578;2023-05-02T15:48:37;26.60;25.90
31677;DHT22;18385;51.572;6.578;2023-05-02T15:51:03;25.60;26.60
31677;DHT22;18385;51.572;6.578;2023-05-02T15:53:29;24.50;26.90
31677;DHT22;18385;51.572;6.578;2023-05-02T15:55:56;23.70;27.70
31677;DHT22;18385;51.572;6.578;2023-05-02T15:58:21;23.10;28.00
31677;DHT22;18385;51.572;6.578;2023-05-02T16:00:47;22.60;28.30
31677;DHT22;18385;51.572;6.578;2023-05-02T16:03:13;22.30;28.50
31677;DHT22;18385;51.572;6.578;2023-05-02T16:05:39;21.90;28.90
31677;DHT22;18385;51.572;6.578;2023-05-02T16:08:05;21.70;29.10
31677;DHT22;18385;51.572;6.578;2023-05-02T16:10:31;21.50;29.20
31677;DHT22;18385;51.572;6.578;2023-05-02T16:12:56;21.20;29.20
31677;DHT22;18385;51.572;6.578;2023-05-02T16:15:22;21.00;29.50
31677;DHT22;18385;51.572;6.578;2023-05-02T16:17:49;20.90;29.40
31677;DHT22;18385;51.572;6.578;2023-05-02T16:20:15;20.70;29.60
31677;DHT22;18385;51.572;6.578;2023-05-02T16:22:45;20.60;29.80
31677;DHT22;18385;51.572;6.578;2023-05-02T16:25:15;20.60;29.80
31677;DHT22;18385;51.572;6.578;2023-05-02T16:27:41;20.40;29.90